»·PEaware :: USA189 KSBP-KRNO

USA189 :: KSBP-KRNO

FLIGHT INFORMATION

Flight Status: Arrived
Operator:
US Airways
More flights by this operator :: More flights under this callsign
Pilot: Patricio R. (14780)
Aircraft: BOEING 737-200
(B732)
More flights by this aircraft type
Origin: KSBP San Luis Co Regl
United States
Destination: KRNO Reno/Tahoe Intl
United States
More flights between these airports :: More routes between these airports
Route: +CREPE3 PRB V113 ROM V485 SJC V334 SAC TARVR1
File this flight plan on PilotEdge
Remarks: PBN / A1B2 DOF / 180223 REG / N275SB EET / KZOA0004 KZAK0026 OPR / USA RMK / TCAS SIMBRIEF
Altitude:
(Current/Filed)
31,000ft
Speed:
(Current/Filed)
430kts
Departed: 23-Feb-18 12:05 PM
Arrived: 23-Feb-18 01:11 PM
Distance/Time
Traveled:
259nm/1:05
Distance/Time
To Go:
Arrived

Flight Plot

Page will automatically refresh every two minutes.

Flight plan parsing failed; only flown route is shown


Map Options




Map Legend


Flown Route
Filed Route
Departure Airport
Arrival Airport
Navaid (VOR, NDB)
Fix

Horizontal Profiles

Position Reports

Time Latitude Longitude Heading Altitude Ground
Speed
23-Feb-18 11:47 35.238870 -120.641187 1 184ft 0kts
23-Feb-18 11:48 35.238870 -120.641187 1 184ft 0kts
23-Feb-18 11:49 35.238870 -120.641187 1 184ft 0kts
23-Feb-18 11:50 35.238870 -120.641187 1 184ft 0kts
23-Feb-18 11:51 35.238870 -120.641187 1 184ft 0kts
23-Feb-18 11:52 35.238870 -120.641187 1 184ft 0kts
23-Feb-18 11:53 35.238870 -120.641187 1 184ft 0kts
23-Feb-18 11:54 35.238870 -120.641187 1 184ft 0kts
23-Feb-18 11:55 35.238870 -120.641187 1 184ft 0kts
23-Feb-18 11:56 35.238870 -120.641187 1 184ft 0kts
23-Feb-18 11:57 35.238870 -120.641187 1 184ft 0kts
23-Feb-18 11:58 35.238870 -120.641187 1 184ft 0kts
23-Feb-18 11:59 35.238870 -120.641187 1 184ft 0kts
23-Feb-18 12:00 35.238870 -120.641187 1 184ft 0kts
23-Feb-18 12:01 35.238870 -120.641187 1 184ft 0kts
23-Feb-18 12:02 35.238833 -120.641187 5 184ft 1kts
23-Feb-18 12:03 35.238846 -120.641737 123 184ft 0kts
23-Feb-18 12:04 35.238855 -120.641753 123 184ft 0kts
23-Feb-18 12:05 35.238855 -120.641753 123 184ft 0kts
23-Feb-18 12:06 35.238237 -120.640667 124 184ft 10kts
23-Feb-18 12:07 35.236503 -120.637390 125 184ft 12kts
23-Feb-18 12:08 35.234484 -120.633864 123 184ft 13kts
23-Feb-18 12:09 35.233382 -120.632212 183 184ft 0kts
23-Feb-18 12:10 35.233382 -120.632212 183 184ft 0kts
23-Feb-18 12:11 35.233183 -120.633515 304 184ft 36kts
23-Feb-18 12:12 35.253672 -120.670988 302 1555ft 176kts
23-Feb-18 12:13 35.280589 -120.726146 288 4706ft 215kts
23-Feb-18 12:14 35.320211 -120.787206 314 5746ft 216kts
23-Feb-18 12:15 35.351962 -120.848005 306 7935ft 212kts
23-Feb-18 12:16 35.405898 -120.857357 7 9500ft 242kts
23-Feb-18 12:17 35.468087 -120.809142 28 11792ft 273kts
23-Feb-18 12:18 35.530609 -120.753859 28 14172ft 281kts
23-Feb-18 12:19 35.594824 -120.696805 27 16377ft 290kts
23-Feb-18 12:20 35.661229 -120.638699 16 18340ft 291kts
23-Feb-18 12:21 35.735980 -120.647872 342 20121ft 276kts
23-Feb-18 12:22 35.811306 -120.670135 342 21740ft 282kts
23-Feb-18 12:23 35.888104 -120.692320 342 23179ft 286kts
23-Feb-18 12:24 35.966177 -120.714397 342 24451ft 291kts
23-Feb-18 12:25 36.045466 -120.736395 343 25586ft 295kts
23-Feb-18 12:26 36.127697 -120.748446 349 26610ft 303kts
23-Feb-18 12:27 36.210405 -120.764795 342 27585ft 303kts
23-Feb-18 12:28 36.292586 -120.789484 340 28459ft 306kts
23-Feb-18 12:29 36.375127 -120.816920 340 29249ft 309kts
23-Feb-18 12:30 36.458012 -120.845287 339 29941ft 312kts
23-Feb-18 12:31 36.541840 -120.874269 339 30407ft 319kts
23-Feb-18 12:32 36.628506 -120.904342 340 30407ft 326kts
23-Feb-18 12:33 36.716127 -120.934820 340 30408ft 330kts
23-Feb-18 12:34 36.804979 -120.965844 340 30407ft 333kts
23-Feb-18 12:35 36.894532 -120.997174 340 30405ft 336kts
23-Feb-18 12:36 36.984585 -121.028844 341 30402ft 338kts
23-Feb-18 12:37 37.075044 -121.060557 343 30393ft 339kts
23-Feb-18 12:38 37.165698 -121.092098 344 30412ft 342kts
23-Feb-18 12:39 37.257907 -121.124440 343 30409ft 345kts
23-Feb-18 12:40 37.350529 -121.157230 343 30403ft 348kts
23-Feb-18 12:41 37.443471 -121.190227 343 30403ft 349kts
23-Feb-18 12:42 37.536838 -121.223446 343 30401ft 350kts
23-Feb-18 12:43 37.630524 -121.256873 343 30404ft 350kts
23-Feb-18 12:44 37.724108 -121.290353 343 30411ft 350kts
23-Feb-18 12:45 37.817511 -121.323857 343 30413ft 350kts
23-Feb-18 12:46 37.911161 -121.357536 343 30411ft 350kts
23-Feb-18 12:47 38.004495 -121.391219 343 30409ft 349kts
23-Feb-18 12:48 38.097342 -121.424789 343 30407ft 348kts
23-Feb-18 12:49 38.189216 -121.457680 343 30428ft 350kts
23-Feb-18 12:50 38.283391 -121.491840 343 29712ft 358kts
23-Feb-18 12:51 38.377810 -121.526276 343 28879ft 352kts
23-Feb-18 12:52 38.467136 -121.491982 47 27950ft 395kts
23-Feb-18 12:53 38.488797 -121.347731 68 27167ft 415kts
23-Feb-18 12:54 38.515701 -121.206763 65 26371ft 405kts
23-Feb-18 12:55 38.543699 -121.069334 66 25629ft 392kts
23-Feb-18 12:56 38.570891 -120.936678 67 24645ft 381kts
23-Feb-18 12:57 38.597341 -120.806747 67 23310ft 373kts
23-Feb-18 12:58 38.622838 -120.680443 68 21965ft 364kts
23-Feb-18 12:59 38.647784 -120.556243 68 20641ft 356kts
23-Feb-18 13:00 38.672061 -120.434955 69 19200ft 348kts
23-Feb-18 13:01 38.695377 -120.317387 71 17832ft 342kts
23-Feb-18 13:02 38.718120 -120.200583 71 16523ft 335kts
23-Feb-18 13:03 38.740275 -120.087491 71 15858ft 311kts
23-Feb-18 13:04 38.760354 -119.984917 70 15869ft 290kts
23-Feb-18 13:05 38.779927 -119.884808 70 15919ft 291kts
23-Feb-18 13:06 38.799692 -119.782710 70 15962ft 298kts
23-Feb-18 13:07 38.850218 -119.716610 0 16002ft 283kts
23-Feb-18 13:08 38.929028 -119.722407 357 15946ft 282kts
23-Feb-18 13:09 39.005811 -119.720053 12 14986ft 279kts
23-Feb-18 13:10 39.080505 -119.695139 13 13323ft 277kts
23-Feb-18 13:11 39.148579 -119.718850 326 11765ft 278kts
23-Feb-18 13:12 39.207533 -119.770961 0 10855ft 251kts
23-Feb-18 13:13 39.278286 -119.770072 0 9220ft 246kts
23-Feb-18 13:14 39.341806 -119.769773 1 7758ft 216kts
23-Feb-18 13:15 39.397352 -119.769603 1 6442ft 176kts
23-Feb-18 13:16 39.440247 -119.769445 2 5526ft 143kts
23-Feb-18 13:17 39.479102 -119.769297 1 4611ft 133kts
23-Feb-18 13:18 39.501404 -119.769244 357 4417ft 25kts

Navigation Log

Ident Type
Flight plan parsing failed, navigation log unavailable